Time;durP1;ratioP1;P1;durP2;ratioP2;P2;SDS_P1;SDS_P2;PMS_P1;PMS_P2;Temp;Humidity;BMP_temperature;BMP_pressure;BME280_temperature;BME280_humidity;BME280_pressure;Samples;Min_cycle;Max_cycle;Signal;HPM_P1;HPM_P2
2021/05/31 00:00:08;;;;;;;8.82;4.85;;;20.90;75.20;;;;;;5053368;28;20021;-76
2021/05/31 00:02:33;;;;;;;6.75;4.68;;;20.90;75.80;;;;;;5052798;28;20052;-77
2021/05/31 00:04:59;;;;;;;6.18;4.30;;;20.90;76.10;;;;;;5053252;28;20017;-77
2021/05/31 00:07:25;;;;;;;6.45;4.13;;;20.90;76.20;;;;;;5052947;28;20036;-77
2021/05/31 00:09:55;;;;;;;6.50;4.03;;;20.90;76.40;;;;;;5052966;28;20021;-77
2021/05/31 00:12:21;;;;;;;8.75;4.28;;;20.90;76.50;;;;;;5051508;28;20441;-76
2021/05/31 00:14:47;;;;;;;7.00;4.10;;;20.90;76.50;;;;;;5052897;28;20158;-77
2021/05/31 00:17:13;;;;;;;5.95;4.10;;;20.90;76.80;;;;;;5052468;28;20029;-77
2021/05/31 00:19:40;;;;;;;5.03;4.38;;;20.90;77.10;;;;;;5051578;28;20029;-77
2021/05/31 00:22:06;;;;;;;7.38;4.85;;;20.90;77.20;;;;;;5052573;28;20021;-77
2021/05/31 00:24:32;;;;;;;6.85;4.70;;;20.90;77.50;;;;;;5051043;28;20025;-77
2021/05/31 00:26:58;;;;;;;6.22;4.18;;;20.90;77.70;;;;;;5052542;28;20496;-77
2021/05/31 00:29:24;;;;;;;6.50;4.75;;;20.90;77.70;;;;;;5053121;28;20092;-77
2021/05/31 00:31:58;;;;;;;5.57;3.92;;;20.80;77.80;;;;;;5051929;28;20511;-77
2021/05/31 00:34:24;;;;;;;6.57;4.38;;;20.90;77.70;;;;;;5052940;28;20504;-77
2021/05/31 00:36:50;;;;;;;5.43;3.95;;;20.90;77.80;;;;;;5052089;28;20114;-77
2021/05/31 00:39:18;;;;;;;6.03;4.22;;;20.90;77.70;;;;;;5052545;28;20053;-77
2021/05/31 00:41:47;;;;;;;5.57;4.47;;;20.80;77.70;;;;;;5052097;28;20044;-77
2021/05/31 00:44:12;;;;;;;5.70;4.05;;;20.80;77.70;;;;;;5052335;28;20416;-77
2021/05/31 00:46:38;;;;;;;5.18;4.28;;;20.80;77.50;;;;;;5052363;28;20025;-76
2021/05/31 00:49:04;;;;;;;5.40;4.05;;;20.80;77.50;;;;;;5051689;28;20029;-76
2021/05/31 00:51:30;;;;;;;6.32;4.40;;;20.80;77.50;;;;;;5052208;28;20040;-76
2021/05/31 00:53:56;;;;;;;7.57;4.60;;;20.80;77.40;;;;;;5052584;28;20092;-76
2021/05/31 00:56:22;;;;;;;5.95;4.10;;;20.80;77.40;;;;;;5051949;28;20087;-77
2021/05/31 00:58:48;;;;;;;5.20;3.95;;;20.70;77.30;;;;;;5051959;28;20041;-78
2021/05/31 01:01:16;;;;;;;5.25;4.07;;;20.80;77.30;;;;;;5051533;28;20028;-78
2021/05/31 01:03:42;;;;;;;5.88;4.00;;;20.70;77.30;;;;;;5051385;28;20039;-78
2021/05/31 01:06:11;;;;;;;5.80;3.90;;;20.70;77.30;;;;;;5051691;28;20028;-78
2021/05/31 01:08:55;;;;;;;5.57;4.03;;;20.70;77.20;;;;;;5051778;28;20032;-78
2021/05/31 01:11:35;;;;;;;6.05;4.07;;;20.70;77.20;;;;;;5051911;28;20507;-75
2021/05/31 01:14:08;;;;;;;5.43;4.00;;;20.70;77.10;;;;;;5051703;28;20109;-78
2021/05/31 01:16:46;;;;;;;6.70;3.70;;;20.70;76.90;;;;;;5051185;28;20393;-79
2021/05/31 01:19:53;;;;;;;5.85;4.30;;;20.70;76.80;;;;;;5050413;28;20044;-78
2021/05/31 01:22:25;;;;;;;6.78;3.97;;;20.70;76.70;;;;;;5011385;28;20579;-78
2021/05/31 01:24:51;;;;;;;6.78;4.15;;;20.70;76.70;;;;;;5046778;28;20122;-77
2021/05/31 01:27:20;;;;;;;4.85;3.72;;;20.70;76.70;;;;;;5050797;28;20501;-77
2021/05/31 01:30:10;;;;;;;5.78;4.20;;;20.70;76.60;;;;;;5051009;28;20040;-77
2021/05/31 01:32:45;;;;;;;6.47;3.88;;;20.70;76.40;;;;;;5051161;28;20112;-77
2021/05/31 01:35:17;;;;;;;7.10;4.45;;;20.60;76.40;;;;;;5051339;28;20104;-77
2021/05/31 01:37:44;;;;;;;5.88;4.22;;;20.70;76.50;;;;;;5050970;28;20493;-77
2021/05/31 01:40:12;;;;;;;5.93;3.75;;;20.60;76.30;;;;;;5051397;28;20485;-77
2021/05/31 01:42:38;;;;;;;4.53;3.60;;;20.60;76.20;;;;;;5050787;28;20021;-77
2021/05/31 01:45:06;;;;;;;7.72;4.47;;;20.60;76.10;;;;;;5050841;28;20032;-77
2021/05/31 01:47:33;;;;;;;7.60;4.35;;;20.60;76.10;;;;;;5050765;28;20024;-78
2021/05/31 01:49:59;;;;;;;7.05;3.97;;;20.60;76.10;;;;;;5050634;28;20036;-77
2021/05/31 01:52:26;;;;;;;6.35;4.07;;;20.60;76.00;;;;;;5051239;28;20025;-78
2021/05/31 01:54:56;;;;;;;4.65;4.13;;;20.60;76.00;;;;;;5050576;28;20155;-78
2021/05/31 01:57:22;;;;;;;4.68;3.40;;;20.50;76.70;;;;;;5050590;28;20048;-77
2021/05/31 01:59:50;;;;;;;6.60;3.92;;;20.60;76.00;;;;;;5050053;28;20138;-78
2021/05/31 02:02:16;;;;;;;4.82;3.50;;;20.50;75.80;;;;;;5050720;28;20020;-78
2021/05/31 02:04:42;;;;;;;4.38;3.53;;;20.50;75.70;;;;;;5050006;28;20040;-77
2021/05/31 02:07:07;;;;;;;5.00;3.58;;;20.50;75.60;;;;;;5050701;28;20029;-77
2021/05/31 02:09:33;;;;;;;4.85;4.00;;;20.50;75.60;;;;;;5050892;28;20108;-76
2021/05/31 02:12:12;;;;;;;5.22;3.88;;;20.50;75.50;;;;;;5051121;28;20108;-76
2021/05/31 02:14:53;;;;;;;5.25;3.97;;;20.50;75.40;;;;;;5050558;28;20392;-78
2021/05/31 02:17:31;;;;;;;4.78;3.95;;;20.50;75.40;;;;;;5050779;28;20025;-77
2021/05/31 02:20:00;;;;;;;5.95;4.13;;;20.50;75.30;;;;;;5049466;28;20032;-78
2021/05/31 02:22:30;;;;;;;4.30;3.35;;;20.40;75.20;;;;;;5051227;28;20079;-78
2021/05/31 02:24:56;;;;;;;5.63;3.90;;;20.50;75.20;;;;;;5051363;28;20057;-77
2021/05/31 02:27:23;;;;;;;4.95;3.80;;;20.40;74.90;;;;;;5051028;28;20025;-78
2021/05/31 02:29:49;;;;;;;6.80;4.00;;;20.40;74.90;;;;;;5050300;28;20040;-78
2021/05/31 02:32:14;;;;;;;4.47;3.20;;;20.40;74.70;;;;;;5050487;28;20396;-78
2021/05/31 02:34:40;;;;;;;5.30;3.83;;;20.40;74.80;;;;;;5050258;28;20392;-78
2021/05/31 02:37:08;;;;;;;4.68;3.72;;;20.40;74.80;;;;;;5050804;28;20017;-78
2021/05/31 02:39:35;;;;;;;3.63;3.00;;;20.40;74.80;;;;;;5050089;28;20041;-78
2021/05/31 02:42:00;;;;;;;5.15;3.50;;;20.40;74.70;;;;;;5050983;28;20579;-78
2021/05/31 02:44:26;;;;;;;4.95;3.92;;;20.40;74.70;;;;;;5050772;28;20168;-77
2021/05/31 02:46:52;;;;;;;4.95;3.83;;;20.40;74.60;;;;;;5050234;28;20036;-78
2021/05/31 02:49:17;;;;;;;4.90;3.58;;;20.40;74.60;;;;;;5048783;28;20108;-78
2021/05/31 02:51:44;;;;;;;5.00;3.55;;;20.40;74.60;;;;;;5051049;28;20037;-78
2021/05/31 02:54:12;;;;;;;4.22;3.45;;;20.40;74.50;;;;;;5050448;28;20405;-77
2021/05/31 02:56:37;;;;;;;5.35;3.63;;;20.30;74.40;;;;;;5053901;28;20077;-77
2021/05/31 02:59:03;;;;;;;4.97;3.83;;;20.30;74.40;;;;;;5053012;28;20048;-77
2021/05/31 03:01:29;;;;;;;5.15;3.50;;;20.30;74.40;;;;;;5053784;28;20036;-78
2021/05/31 03:03:54;;;;;;;4.40;3.20;;;20.30;74.30;;;;;;5054440;28;20154;-78
2021/05/31 03:06:20;;;;;;;5.18;3.47;;;20.30;74.20;;;;;;5053920;28;20053;-78
2021/05/31 03:08:46;;;;;;;4.43;3.55;;;20.30;74.20;;;;;;5054195;28;20534;-78
2021/05/31 03:11:11;;;;;;;4.60;3.80;;;20.30;74.10;;;;;;5054299;28;20033;-78
2021/05/31 03:13:37;;;;;;;4.05;3.38;;;20.30;74.10;;;;;;5054079;28;20032;-78
2021/05/31 03:16:03;;;;;;;5.30;3.47;;;20.30;74.00;;;;;;5054266;28;20029;-78
2021/05/31 03:18:28;;;;;;;5.50;3.58;;;20.30;73.90;;;;;;5052873;28;20405;-78
2021/05/31 03:20:54;;;;;;;5.35;3.85;;;20.30;74.00;;;;;;5053931;28;20032;-78
2021/05/31 03:23:19;;;;;;;4.05;2.95;;;20.30;73.90;;;;;;5053988;28;20025;-78
2021/05/31 03:25:45;;;;;;;3.50;3.00;;;20.30;73.90;;;;;;5053694;28;20029;-78
2021/05/31 03:28:10;;;;;;;6.28;3.60;;;20.20;73.70;;;;;;5053737;28;20068;-78
2021/05/31 03:30:36;;;;;;;3.70;2.80;;;20.20;73.70;;;;;;5053835;28;20039;-78
2021/05/31 03:33:02;;;;;;;3.90;3.50;;;20.20;73.70;;;;;;5053824;28;20392;-77
2021/05/31 03:35:28;;;;;;;4.53;3.30;;;20.30;73.70;;;;;;5052865;28;20400;-79
2021/05/31 03:37:54;;;;;;;3.60;3.28;;;20.20;73.60;;;;;;5053295;28;20091;-79
2021/05/31 03:40:21;;;;;;;4.18;2.85;;;20.20;74.30;;;;;;5053741;28;20090;-79
2021/05/31 03:42:48;;;;;;;4.47;3.55;;;20.20;73.40;;;;;;5053088;28;20021;-79
2021/05/31 03:45:15;;;;;;;4.70;3.70;;;20.20;73.40;;;;;;5053605;28;20031;-79
2021/05/31 03:47:40;;;;;;;4.65;3.10;;;20.20;73.30;;;;;;5052762;28;20033;-79
2021/05/31 03:50:07;;;;;;;4.03;3.33;;;20.10;73.10;;;;;;5051633;28;20028;-78
2021/05/31 03:52:32;;;;;;;4.20;2.95;;;20.20;73.10;;;;;;5053337;28;20033;-78
2021/05/31 03:54:58;;;;;;;5.65;3.22;;;20.20;73.10;;;;;;5053334;28;20028;-77
2021/05/31 03:57:24;;;;;;;3.97;3.08;;;20.20;73.10;;;;;;5053626;28;20147;-78
2021/05/31 03:59:52;;;;;;;5.18;3.15;;;20.10;73.00;;;;;;5053114;28;20025;-77
2021/05/31 04:02:17;;;;;;;5.45;4.03;;;20.20;73.10;;;;;;5053077;28;20474;-78
2021/05/31 04:04:45;;;;;;;4.93;3.38;;;20.20;73.00;;;;;;5052996;28;20032;-78
2021/05/31 04:12:43;;;;;;;5.03;3.28;;;20.10;72.80;;;;;;5053091;28;20401;-78
2021/05/31 04:15:09;;;;;;;3.63;2.95;;;20.10;72.80;;;;;;5052796;28;20033;-77
2021/05/31 04:17:34;;;;;;;3.85;3.17;;;20.10;72.70;;;;;;5052199;28;20033;-76
2021/05/31 04:20:00;;;;;;;5.40;3.30;;;20.10;72.60;;;;;;5052711;28;20032;-76
2021/05/31 04:22:26;;;;;;;4.80;3.50;;;20.10;72.50;;;;;;5052825;28;20024;-77
2021/05/31 04:24:52;;;;;;;3.55;3.15;;;20.10;72.50;;;;;;5051118;28;20025;-77
2021/05/31 04:27:17;;;;;;;4.82;3.50;;;20.10;72.50;;;;;;5052924;28;20035;-77
2021/05/31 04:29:43;;;;;;;3.40;3.00;;;20.10;72.50;;;;;;5052551;28;20107;-77
2021/05/31 04:32:09;;;;;;;4.57;3.38;;;20.10;72.40;;;;;;5052156;28;20120;-77
2021/05/31 04:34:34;;;;;;;3.40;3.05;;;20.00;72.20;;;;;;5052572;28;20036;-76
2021/05/31 04:37:00;;;;;;;4.22;3.30;;;20.00;72.20;;;;;;5052040;28;20100;-76
2021/05/31 04:39:26;;;;;;;4.55;3.47;;;20.00;72.10;;;;;;5052788;28;20033;-77
2021/05/31 04:41:51;;;;;;;3.95;3.28;;;20.00;72.10;;;;;;5052090;28;20021;-77
2021/05/31 04:44:17;;;;;;;5.18;3.42;;;20.00;72.00;;;;;;5052023;28;20044;-77
2021/05/31 04:46:43;;;;;;;4.60;3.03;;;20.00;72.00;;;;;;5051716;28;20468;-77
2021/05/31 04:49:08;;;;;;;3.70;2.85;;;20.00;71.90;;;;;;5051592;28;20033;-77
2021/05/31 04:51:35;;;;;;;3.38;3.03;;;20.00;71.70;;;;;;5050660;28;20116;-77
2021/05/31 04:54:00;;;;;;;4.43;3.20;;;20.00;71.70;;;;;;5051073;28;20406;-77
2021/05/31 04:56:27;;;;;;;4.28;3.15;;;20.00;71.70;;;;;;5052057;28;20025;-77
2021/05/31 04:58:53;;;;;;;4.20;3.15;;;20.00;71.70;;;;;;5050938;28;20045;-77
2021/05/31 05:01:19;;;;;;;4.38;3.30;;;20.00;71.70;;;;;;5051747;28;20385;-78
2021/05/31 05:03:45;;;;;;;4.03;2.88;;;20.00;71.70;;;;;;5067401;28;20033;-77
2021/05/31 05:06:11;;;;;;;5.38;3.00;;;20.00;71.60;;;;;;5050423;28;20040;-77
2021/05/31 05:08:36;;;;;;;3.92;3.50;;;20.00;71.70;;;;;;5049928;28;20024;-77
2021/05/31 05:11:02;;;;;;;4.30;2.97;;;20.00;71.70;;;;;;5051891;28;20104;-77
2021/05/31 05:13:28;;;;;;;3.58;3.15;;;20.00;71.70;;;;;;5051308;28;20025;-77
2021/05/31 05:15:54;;;;;;;3.83;2.97;;;20.00;71.70;;;;;;5052103;28;20060;-77
2021/05/31 05:18:20;;;;;;;3.45;2.80;;;20.00;71.60;;;;;;5049658;28;20040;-77
2021/05/31 05:20:45;;;;;;;4.43;3.42;;;20.00;71.70;;;;;;5050809;28;20021;-78
2021/05/31 05:23:11;;;;;;;4.10;3.00;;;20.00;71.70;;;;;;5051472;28;20413;-78
2021/05/31 05:25:37;;;;;;;3.80;2.70;;;20.00;71.40;;;;;;5051544;28;20021;-77
2021/05/31 05:28:03;;;;;;;3.55;2.67;;;20.00;71.40;;;;;;5051671;28;20017;-75
2021/05/31 05:30:29;;;;;;;3.47;2.80;;;20.00;71.70;;;;;;5051646;28;20021;-75
2021/05/31 05:33:02;;;;;;;6.40;3.00;;;20.00;71.80;;;;;;5051998;28;20431;-76
2021/05/31 05:48:37;;;;;;;3.73;3.00;;;20.00;71.50;;;;;;5050966;28;20032;-77
2021/05/31 05:51:09;;;;;;;3.97;2.65;;;20.00;71.70;;;;;;5050477;28;20444;-78
2021/05/31 05:53:37;;;;;;;3.63;3.08;;;20.00;71.70;;;;;;5051131;28;20017;-77
2021/05/31 05:56:06;;;;;;;3.97;2.90;;;20.00;71.70;;;;;;5051234;28;20052;-78
2021/05/31 05:58:32;;;;;;;3.90;2.63;;;20.00;71.60;;;;;;5050842;28;20055;-79
2021/05/31 06:00:59;;;;;;;5.00;2.63;;;20.00;71.60;;;;;;5051410;28;20021;-78
2021/05/31 06:03:25;;;;;;;2.72;2.40;;;20.00;71.60;;;;;;5051128;28;20063;-77
2021/05/31 06:05:52;;;;;;;4.43;3.40;;;20.00;71.60;;;;;;5050136;28;20469;-77
2021/05/31 06:08:18;;;;;;;3.53;2.72;;;20.00;71.60;;;;;;5051036;28;20485;-78
2021/05/31 06:10:43;;;;;;;4.00;3.08;;;20.00;71.60;;;;;;5050185;28;20048;-76
2021/05/31 06:13:09;;;;;;;3.55;2.70;;;20.00;71.60;;;;;;5050411;28;20409;-77
2021/05/31 06:15:35;;;;;;;4.63;3.25;;;20.10;71.60;;;;;;5050724;28;20025;-77
2021/05/31 06:18:01;;;;;;;4.20;2.97;;;20.10;71.60;;;;;;5048977;28;20028;-77
2021/05/31 06:20:27;;;;;;;5.15;2.95;;;20.10;71.50;;;;;;5051496;28;20052;-81
2021/05/31 06:22:52;;;;;;;8.18;3.20;;;20.10;71.80;;;;;;5051021;28;20043;-78
2021/05/31 06:25:20;;;;;;;4.00;3.08;;;20.10;71.80;;;;;;5050250;28;20033;-76
2021/05/31 06:27:45;;;;;;;6.28;2.75;;;20.20;72.00;;;;;;5050584;28;20017;-76
2021/05/31 06:30:12;;;;;;;6.45;3.20;;;20.20;72.00;;;;;;5053150;28;20029;-77
2021/05/31 06:32:37;;;;;;;16.48;3.13;;;20.20;72.30;;;;;;5054003;28;20025;-76
2021/05/31 06:35:03;;;;;;;5.30;3.30;;;20.10;72.20;;;;;;5052509;28;20032;-77
2021/05/31 06:37:31;;;;;;;6.55;2.38;;;20.20;72.60;;;;;;5052180;28;20646;-75
2021/05/31 06:39:58;;;;;;;4.13;2.53;;;20.20;72.40;;;;;;5053831;28;20036;-74
2021/05/31 06:42:24;;;;;;;6.15;3.15;;;20.20;72.20;;;;;;5054943;28;20028;-74
2021/05/31 06:44:49;;;;;;;5.93;2.90;;;20.20;72.70;;;;;;5054339;28;20056;-74
2021/05/31 06:47:15;;;;;;;6.07;3.67;;;20.20;73.40;;;;;;5054716;28;20488;-75
2021/05/31 06:49:41;;;;;;;3.28;2.42;;;20.30;73.00;;;;;;5054474;28;20028;-76
2021/05/31 06:52:07;;;;;;;3.95;2.67;;;20.30;72.80;;;;;;5054718;28;20543;-75
2021/05/31 06:54:33;;;;;;;8.95;3.40;;;20.30;72.50;;;;;;5054080;28;20206;-74
2021/05/31 06:56:59;;;;;;;6.25;2.97;;;20.30;72.80;;;;;;5053394;28;20017;-75
2021/05/31 06:59:25;;;;;;;7.93;3.35;;;20.30;72.60;;;;;;5053875;28;20044;-78
2021/05/31 07:01:51;;;;;;;5.50;3.22;;;20.40;72.60;;;;;;5052699;28;20056;-80
2021/05/31 07:04:18;;;;;;;7.18;3.55;;;20.40;72.70;;;;;;5054528;28;20033;-75
2021/05/31 07:06:45;;;;;;;6.38;4.15;;;20.30;72.90;;;;;;5053996;28;20028;-76
2021/05/31 07:09:12;;;;;;;10.77;4.18;;;20.40;73.10;;;;;;5054052;28;20086;-76
2021/05/31 07:11:44;;;;;;;6.35;3.33;;;20.30;73.10;;;;;;5054124;28;20082;-76
2021/05/31 07:14:16;;;;;;;11.48;3.53;;;20.30;73.20;;;;;;5054186;28;20097;-75
2021/05/31 07:16:44;;;;;;;12.05;4.10;;;20.40;73.60;;;;;;5052731;28;20017;-76
2021/05/31 07:19:11;;;;;;;12.85;4.13;;;20.40;73.90;;;;;;5052613;28;20036;-76
2021/05/31 07:21:39;;;;;;;15.65;3.65;;;20.40;74.40;;;;;;5052048;28;20013;-76
2021/05/31 07:24:09;;;;;;;14.45;3.95;;;20.40;74.90;;;;;;5053265;28;20558;-75
2021/05/31 07:26:36;;;;;;;6.85;3.58;;;20.40;74.80;;;;;;5053425;28;20088;-76
2021/05/31 07:29:06;;;;;;;8.00;3.83;;;20.40;74.50;;;;;;5053849;28;20025;-77
2021/05/31 07:31:31;;;;;;;10.07;3.95;;;20.50;74.20;;;;;;5053211;28;20535;-77
2021/05/31 07:33:57;;;;;;;9.75;4.50;;;20.50;74.10;;;;;;5054044;28;20100;-78
2021/05/31 07:36:23;;;;;;;10.40;4.05;;;20.50;73.90;;;;;;5053991;28;20068;-74
2021/05/31 07:38:50;;;;;;;6.45;2.92;;;20.50;73.80;;;;;;5053250;28;20481;-75
2021/05/31 07:41:17;;;;;;;8.85;3.90;;;20.50;73.60;;;;;;5052419;28;20489;-81
2021/05/31 07:43:42;;;;;;;6.82;3.83;;;20.50;73.50;;;;;;5052931;28;20151;-82
2021/05/31 07:46:08;;;;;;;7.43;4.20;;;20.50;73.30;;;;;;5052643;28;20120;-79
2021/05/31 07:48:33;;;;;;;6.47;3.28;;;20.50;73.30;;;;;;5052618;28;20498;-74
2021/05/31 07:51:15;;;;;;;10.88;3.85;;;20.60;73.30;;;;;;5052755;28;20049;-80
2021/05/31 07:53:45;;;;;;;7.10;3.58;;;20.60;73.20;;;;;;5052502;28;20025;-76
2021/05/31 07:56:12;;;;;;;7.00;3.28;;;20.60;73.20;;;;;;5033337;28;20022;-75
2021/05/31 07:58:42;;;;;;;8.07;3.67;;;20.60;73.10;;;;;;5033199;28;20026;-80
2021/05/31 08:01:08;;;;;;;8.65;3.33;;;20.60;73.00;;;;;;5040981;28;20455;-80
2021/05/31 08:03:34;;;;;;;11.15;3.15;;;20.60;72.90;;;;;;5052713;28;20100;-81
2021/05/31 08:06:00;;;;;;;10.15;3.90;;;20.60;73.00;;;;;;5052397;28;20029;-76
2021/05/31 08:08:27;;;;;;;5.72;3.20;;;20.60;72.80;;;;;;5053240;28;20036;-85
2021/05/31 08:10:54;;;;;;;8.57;4.05;;;20.60;72.70;;;;;;5053113;28;20028;-83
2021/05/31 08:13:20;;;;;;;7.85;3.67;;;20.60;72.60;;;;;;5052784;28;20036;-85
2021/05/31 08:15:45;;;;;;;9.50;2.83;;;20.70;72.60;;;;;;5052452;28;20025;-86
2021/05/31 08:18:11;;;;;;;8.40;3.15;;;20.60;72.50;;;;;;5052127;28;20043;-83
2021/05/31 08:20:39;;;;;;;6.90;2.90;;;20.60;72.50;;;;;;5052197;28;20052;-86
2021/05/31 08:23:05;;;;;;;6.95;3.03;;;20.60;72.50;;;;;;5053732;28;20100;-74
2021/05/31 08:25:31;;;;;;;9.10;3.45;;;20.60;72.40;;;;;;5053369;28;20032;-77
2021/05/31 08:27:56;;;;;;;8.15;3.63;;;20.60;72.40;;;;;;5052986;28;20547;-80
2021/05/31 08:30:22;;;;;;;7.15;2.95;;;20.70;72.40;;;;;;5052722;28;20055;-81
2021/05/31 08:32:48;;;;;;;6.20;3.17;;;20.70;72.40;;;;;;5052608;28;20075;-86
2021/05/31 08:35:15;;;;;;;8.93;3.58;;;20.70;72.50;;;;;;5052854;28;20458;-76
2021/05/31 08:37:40;;;;;;;7.35;2.95;;;20.70;72.40;;;;;;5052605;28;20045;-88
2021/05/31 08:40:09;;;;;;;7.43;3.08;;;20.70;72.40;;;;;;5052777;28;20060;-77
2021/05/31 08:42:39;;;;;;;4.85;3.10;;;20.70;72.30;;;;;;5052223;28;20041;-82
2021/05/31 08:45:07;;;;;;;7.70;2.78;;;20.70;72.20;;;;;;5051715;28;20119;-81
2021/05/31 08:47:49;;;;;;;6.97;3.10;;;20.70;72.10;;;;;;5050349;28;20029;-74
2021/05/31 08:50:19;;;;;;;5.10;3.00;;;20.70;72.10;;;;;;5052074;28;20032;-73
2021/05/31 08:52:45;;;;;;;7.47;3.67;;;20.70;71.90;;;;;;5051740;28;20546;-75
2021/05/31 08:55:13;;;;;;;4.68;2.53;;;20.70;72.10;;;;;;5052285;28;20021;-74
2021/05/31 08:57:39;;;;;;;4.60;2.70;;;20.70;72.10;;;;;;5051802;28;20028;-82
2021/05/31 09:00:07;;;;;;;7.78;3.28;;;20.80;72.10;;;;;;5051764;28;20103;-75
2021/05/31 09:02:35;;;;;;;8.95;3.17;;;20.70;71.90;;;;;;5051546;28;20025;-82
2021/05/31 09:05:01;;;;;;;5.43;2.58;;;20.80;71.90;;;;;;5052104;28;20028;-81
2021/05/31 09:07:27;;;;;;;3.70;2.25;;;20.80;71.90;;;;;;5052245;28;20033;-81
2021/05/31 09:09:54;;;;;;;4.40;2.72;;;20.80;71.80;;;;;;5051647;28;20106;-83
2021/05/31 09:12:23;;;;;;;6.60;3.20;;;20.80;71.70;;;;;;5051908;28;20042;-73
2021/05/31 09:15:01;;;;;;;6.53;2.65;;;20.80;71.70;;;;;;5051379;28;20090;-78
2021/05/31 09:17:29;;;;;;;4.88;2.88;;;20.80;71.70;;;;;;5051738;28;20358;-78
2021/05/31 09:19:55;;;;;;;7.15;2.90;;;20.80;71.70;;;;;;5051765;28;20063;-74
2021/05/31 09:22:22;;;;;;;8.45;2.70;;;20.80;71.90;;;;;;5051410;28;20029;-79
2021/05/31 09:24:55;;;;;;;4.97;2.50;;;20.80;71.80;;;;;;5051301;28;20021;-81
2021/05/31 09:27:20;;;;;;;4.25;3.00;;;20.90;71.80;;;;;;5051645;28;20028;-79
2021/05/31 09:29:57;;;;;;;4.88;2.45;;;20.90;71.70;;;;;;5051351;28;20107;-79
2021/05/31 09:32:23;;;;;;;5.45;2.60;;;20.80;71.70;;;;;;5052027;28;20029;-74
2021/05/31 09:35:01;;;;;;;7.05;2.55;;;20.90;71.60;;;;;;5051184;28;20033;-81
2021/05/31 09:37:27;;;;;;;5.50;2.97;;;20.90;71.60;;;;;;5051713;28;20404;-74
2021/05/31 09:40:03;;;;;;;4.15;2.63;;;20.90;71.60;;;;;;5051463;28;20570;-80
2021/05/31 09:42:29;;;;;;;;;;;20.90;71.60;;;;;;5051648;28;20029;-80
2021/05/31 09:45:08;;;;;;;3.50;2.10;;;20.90;71.60;;;;;;5051457;28;19908;-80
2021/05/31 09:47:36;;;;;;;5.50;2.42;;;20.90;72.10;;;;;;5051198;28;20207;-81
2021/05/31 09:50:04;;;;;;;5.85;2.50;;;20.90;71.30;;;;;;5051059;28;20033;-74
2021/05/31 09:52:30;;;;;;;6.80;2.70;;;20.90;71.30;;;;;;5050076;28;20021;-75
2021/05/31 09:54:55;;;;;;;5.30;2.67;;;20.90;70.90;;;;;;5051469;28;20515;-81
2021/05/31 09:57:26;;;;;;;3.97;2.40;;;20.90;71.80;;;;;;5050142;28;20028;-73
2021/05/31 10:00:05;;;;;;;4.63;2.50;;;21.00;71.70;;;;;;5050715;28;20041;-74
2021/05/31 10:05:23;;;;;;;7.90;2.70;;;21.00;71.60;;;;;;5050711;28;20025;-79
2021/05/31 10:10:27;;;;;;;5.72;3.00;;;21.00;71.50;;;;;;5051125;28;20020;-80
2021/05/31 10:12:53;;;;;;;6.18;2.97;;;21.00;71.60;;;;;;5050880;28;20023;-74
2021/05/31 10:15:24;;;;;;;5.50;2.40;;;21.00;71.40;;;;;;5050166;28;20108;-73
2021/05/31 10:17:55;;;;;;;5.68;2.40;;;21.00;71.20;;;;;;5050729;28;20025;-73
2021/05/31 10:20:23;;;;;;;6.78;2.45;;;21.00;71.10;;;;;;5050864;28;20044;-81
2021/05/31 10:22:48;;;;;;;5.45;2.45;;;21.00;71.00;;;;;;5050907;28;20028;-79
2021/05/31 10:25:15;;;;;;;5.18;2.38;;;21.10;71.10;;;;;;5050740;28;20025;-83
2021/05/31 10:27:44;;;;;;;4.38;2.47;;;21.10;71.20;;;;;;5051068;28;20032;-84
2021/05/31 10:30:13;;;;;;;5.32;2.55;;;21.10;71.10;;;;;;5049843;28;20527;-82
2021/05/31 10:32:39;;;;;;;6.13;2.30;;;21.10;71.20;;;;;;5050294;28;20033;-81
2021/05/31 10:35:22;;;;;;;3.70;2.25;;;21.10;71.00;;;;;;5050002;28;20032;-76
2021/05/31 10:37:56;;;;;;;5.43;2.75;;;21.10;70.90;;;;;;5048957;28;20392;-81
2021/05/31 10:40:31;;;;;;;4.88;2.35;;;21.20;71.00;;;;;;5049692;28;20071;-81
2021/05/31 10:42:57;;;;;;;;;;;21.10;71.00;;;;;;5051224;28;20029;-80
2021/05/31 10:45:23;;;;;;;;;;;21.10;71.00;;;;;;5049626;28;19991;-81
2021/05/31 10:48:01;;;;;;;3.83;2.30;;;21.10;71.00;;;;;;5050435;28;20038;-83
2021/05/31 10:50:29;;;;;;;6.65;2.85;;;21.10;70.90;;;;;;5049944;28;20057;-79
2021/05/31 10:52:56;;;;;;;6.80;2.55;;;21.20;70.90;;;;;;5050732;28;20028;-82
2021/05/31 10:55:22;;;;;;;3.72;2.10;;;21.20;70.70;;;;;;5050846;28;20029;-81
2021/05/31 10:57:47;;;;;;;4.85;2.88;;;21.20;70.60;;;;;;5050526;28;20861;-84
2021/05/31 11:00:31;;;;;;;4.10;2.80;;;21.20;70.50;;;;;;5050587;28;20025;-81
2021/05/31 11:03:09;;;;;;;4.35;2.22;;;21.20;70.40;;;;;;5051190;28;20094;-82
2021/05/31 11:05:35;;;;;;;9.52;2.30;;;21.20;70.40;;;;;;5050277;28;20017;-82
2021/05/31 11:08:02;;;;;;;3.15;2.30;;;21.20;70.30;;;;;;5049461;28;20036;-85
2021/05/31 11:10:32;;;;;;;5.78;2.40;;;21.30;70.30;;;;;;5050695;28;20029;-83
2021/05/31 11:13:15;;;;;;;6.07;2.30;;;21.20;70.20;;;;;;5049805;28;20496;-82
2021/05/31 11:15:42;;;;;;;4.13;2.25;;;21.30;70.10;;;;;;5050477;28;20040;-82
2021/05/31 11:18:08;;;;;;;3.45;2.05;;;21.30;70.00;;;;;;5052048;28;20033;-78
2021/05/31 11:20:34;;;;;;;5.40;2.55;;;21.30;69.90;;;;;;5053802;28;20024;-79
2021/05/31 11:23:02;;;;;;;5.28;2.33;;;21.30;70.40;;;;;;5054399;28;20025;-81
2021/05/31 11:25:29;;;;;;;4.15;2.28;;;21.30;70.00;;;;;;5053925;28;20118;-80
2021/05/31 11:27:59;;;;;;;3.30;2.20;;;21.30;70.50;;;;;;5051752;28;20029;-82
2021/05/31 11:30:28;;;;;;;4.85;2.58;;;21.40;70.10;;;;;;5050587;28;20036;-79
2021/05/31 11:32:56;;;;;;;5.50;2.47;;;21.40;70.10;;;;;;5052468;28;20031;-83
2021/05/31 11:35:23;;;;;;;4.20;2.00;;;21.40;70.70;;;;;;5052177;28;20095;-83
2021/05/31 11:37:51;;;;;;;3.28;1.98;;;21.40;70.00;;;;;;5052142;28;20099;-81
2021/05/31 11:40:30;;;;;;;4.70;2.70;;;21.40;69.90;;;;;;5052202;28;20039;-82
2021/05/31 11:42:58;;;;;;;3.42;2.33;;;21.40;69.90;;;;;;5050823;28;20116;-81
2021/05/31 11:45:26;;;;;;;5.75;2.13;;;21.50;69.90;;;;;;5053190;28;20029;-80
2021/05/31 11:48:01;;;;;;;5.53;2.20;;;21.50;69.80;;;;;;5053368;28;20078;-81
2021/05/31 11:50:28;;;;;;;6.07;2.83;;;21.50;69.70;;;;;;5053726;28;20032;-81
2021/05/31 11:52:54;;;;;;;6.40;2.22;;;21.50;70.30;;;;;;5052737;28;20860;-80
2021/05/31 11:55:26;;;;;;;14.75;2.58;;;21.60;70.10;;;;;;5052180;28;20021;-81
2021/05/31 11:57:52;;;;;;;4.47;2.78;;;21.60;70.50;;;;;;5047040;28;20432;-82
2021/05/31 12:00:41;;;;;;;4.43;2.58;;;21.60;70.70;;;;;;5051508;28;20033;-81
2021/05/31 12:03:19;;;;;;;8.75;2.40;;;21.60;70.70;;;;;;5049895;28;20484;-78
2021/05/31 12:05:45;;;;;;;3.38;2.20;;;21.70;70.20;;;;;;5047028;28;20048;-77
2021/05/31 12:08:14;;;;;;;4.50;2.10;;;21.70;70.10;;;;;;5051563;28;20116;-76
2021/05/31 12:10:42;;;;;;;5.90;2.35;;;21.70;70.20;;;;;;5048897;28;20542;-73
2021/05/31 12:13:08;;;;;;;6.32;2.38;;;21.70;69.90;;;;;;5051712;28;20029;-75
2021/05/31 12:15:35;;;;;;;2.70;1.92;;;21.80;70.00;;;;;;5052205;28;20029;-76
2021/05/31 12:18:08;;;;;;;4.43;2.35;;;21.80;69.80;;;;;;5052197;28;20029;-72
2021/05/31 12:20:34;;;;;;;4.75;2.25;;;21.80;69.80;;;;;;5052236;28;20055;-74
2021/05/31 12:22:59;;;;;;;4.85;2.05;;;21.80;69.70;;;;;;5051844;28;20477;-75
2021/05/31 12:25:31;;;;;;;3.80;2.35;;;21.80;69.80;;;;;;5052942;28;20100;-72
2021/05/31 12:28:04;;;;;;;4.50;2.15;;;21.80;69.70;;;;;;5052564;28;20025;-76
2021/05/31 12:30:29;;;;;;;6.45;2.42;;;21.90;69.60;;;;;;5052393;28;20032;-76
2021/05/31 12:32:55;;;;;;;3.60;2.20;;;21.90;69.60;;;;;;5052845;28;20021;-78
2021/05/31 12:35:21;;;;;;;3.45;2.13;;;21.90;69.40;;;;;;5052578;28;20028;-77
2021/05/31 12:37:52;;;;;;;3.38;1.88;;;21.90;69.30;;;;;;5052362;28;20496;-74
2021/05/31 12:40:20;;;;;;;3.22;2.00;;;22.00;69.20;;;;;;5052789;28;20032;-74
2021/05/31 12:42:49;;;;;;;4.43;1.85;;;21.90;69.00;;;;;;5052374;28;20100;-78
2021/05/31 12:45:19;;;;;;;5.10;1.90;;;22.00;69.10;;;;;;5052355;28;20032;-77
2021/05/31 12:47:47;;;;;;;5.22;2.35;;;22.00;69.00;;;;;;5052289;28;20048;-77
2021/05/31 12:50:24;;;;;;;3.53;2.08;;;22.00;69.00;;;;;;5051843;28;20028;-75
2021/05/31 12:52:50;;;;;;;2.60;1.90;;;22.00;68.80;;;;;;5049362;28;20111;-79
2021/05/31 12:55:26;;;;;;;2.95;1.90;;;22.10;68.90;;;;;;5051403;28;20068;-81
2021/05/31 12:57:53;;;;;;;4.80;2.03;;;22.10;68.70;;;;;;5052052;28;20370;-77
2021/05/31 13:00:22;;;;;;;2.70;1.80;;;22.10;68.50;;;;;;5050904;28;20033;-78
2021/05/31 13:02:53;;;;;;;3.83;1.80;;;22.10;68.60;;;;;;5052033;28;20052;-77
2021/05/31 13:05:22;;;;;;;3.58;1.90;;;22.10;68.60;;;;;;5051443;28;20036;-78
2021/05/31 13:07:49;;;;;;;7.97;2.38;;;22.20;68.50;;;;;;5051396;28;20079;-77
2021/05/31 13:10:23;;;;;;;3.30;1.77;;;22.20;68.50;;;;;;5051759;28;20029;-77
2021/05/31 13:12:52;;;;;;;3.53;2.05;;;22.30;68.50;;;;;;5051886;28;20036;-78
2021/05/31 13:15:19;;;;;;;2.95;1.60;;;22.30;68.30;;;;;;5051976;28;20462;-78